Terminal Aerodrome Forecast
Issued by NWS Sterling, VA

Current Version | Previous Version | Text Only | Print | Product List | Glossary On
Versions: 1 2 3 4 5 6 7 8 9 10 11 12 13 14
609
FTUS41 KLWX 231122
TAFMRB
TAF
KMRB 231122Z 2312/2412 13004KT P6SM FEW250
     FM240800 VRB03KT P6SM VCSH OVC110=

USA.gov is the U.S. government's official web portal to all federal, state and local government web resources and services.